Time;durP1;ratioP1;P1;durP2;ratioP2;P2;SDS_P1;SDS_P2;PMS_P1;PMS_P2;Temp;Humidity;BMP_temperature;BMP_pressure;BME280_temperature;BME280_humidity;BME280_pressure;Samples;Min_cycle;Max_cycle;Signal;HPM_P1;HPM_P2
2022/11/30 00:00:31;;;;;;;60.65;30.48;;;;;;;2.34;100.00;92446.44;5107824;28;20275;-75
2022/11/30 00:02:57;;;;;;;63.90;29.27;;;;;;;2.26;100.00;92438.06;5088969;28;20115;-75
2022/11/30 00:05:23;;;;;;;59.15;30.60;;;;;;;2.25;100.00;92431.38;5087860;28;20047;-75
2022/11/30 00:07:49;;;;;;;61.53;29.85;;;;;;;2.27;100.00;92431.91;5087134;28;20090;-75
2022/11/30 00:10:16;;;;;;;61.80;30.08;;;;;;;2.28;100.00;92428.28;5104207;28;20127;-75
2022/11/30 00:12:42;;;;;;;63.60;29.17;;;;;;;2.31;100.00;92426.25;5072902;28;20028;-75
2022/11/30 00:15:11;;;;;;;50.85;26.33;;;;;;;2.35;100.00;92414.44;5071482;28;20062;-75
2022/11/30 00:17:37;;;;;;;50.47;26.23;;;;;;;2.35;100.00;92417.81;5071305;28;20044;-75
2022/11/30 00:20:03;;;;;;;52.00;26.05;;;;;;;2.37;100.00;92425.31;5072737;28;20046;-75
2022/11/30 00:22:28;;;;;;;49.40;25.38;;;;;;;2.36;100.00;92416.00;5089945;28;20052;-75
2022/11/30 00:24:54;;;;;;;47.25;22.38;;;;;;;2.35;100.00;92414.44;5088559;28;20418;-75
2022/11/30 00:27:19;;;;;;;44.92;22.50;;;;;;;2.38;100.00;92417.31;5090231;28;20397;-75
2022/11/30 00:29:45;;;;;;;44.75;21.73;;;;;;;2.38;100.00;92411.38;5091592;28;20110;-75
2022/11/30 00:32:10;;;;;;;40.95;20.08;;;;;;;2.40;100.00;92407.53;5091470;28;20434;-75
2022/11/30 00:34:36;;;;;;;36.15;19.27;;;;;;;2.40;100.00;92407.53;5071843;28;20436;-75
2022/11/30 00:37:02;;;;;;;37.50;19.75;;;;;;;2.43;100.00;92408.84;5042852;28;20406;-74
2022/11/30 00:39:27;;;;;;;38.10;17.33;;;;;;;2.43;100.00;92414.03;5071166;28;20044;-75
2022/11/30 00:41:52;;;;;;;38.35;18.58;;;;;;;2.46;100.00;92400.66;5069882;28;20036;-75
2022/11/30 00:44:18;;;;;;;36.53;17.98;;;;;;;2.41;100.00;92400.56;5056681;28;20028;-75
2022/11/30 00:46:43;;;;;;;38.38;18.75;;;;;;;2.46;100.00;92392.88;5068921;28;20460;-75
2022/11/30 00:49:09;;;;;;;34.38;18.20;;;;;;;2.46;100.00;92396.25;5086497;28;20025;-75
2022/11/30 00:51:35;;;;;;;38.47;18.48;;;;;;;2.48;100.00;92399.38;5101455;28;20174;-75
2022/11/30 00:54:00;;;;;;;34.17;18.02;;;;;;;2.52;100.00;92391.91;5104959;28;20094;-74
2022/11/30 00:56:26;;;;;;;37.63;18.17;;;;;;;2.49;100.00;92392.41;5089801;28;20036;-75
2022/11/30 00:58:51;;;;;;;33.78;17.17;;;;;;;2.50;100.00;92393.97;5089710;28;20036;-75
2022/11/30 01:01:17;;;;;;;34.15;17.35;;;;;;;2.50;100.00;92393.97;5090307;28;20486;-75
2022/11/30 01:03:42;;;;;;;32.15;16.20;;;;;;;2.50;100.00;92393.97;5091058;28;20028;-75
2022/11/30 01:06:08;;;;;;;33.78;17.48;;;;;;;2.51;100.00;92395.53;5077126;28;20044;-75
2022/11/30 01:08:35;;;;;;;29.23;16.83;;;;;;;2.51;100.00;92398.13;5070906;28;20406;-75
2022/11/30 01:11:11;;;;;;;33.97;17.85;;;;;;;2.51;100.00;92392.94;5070739;28;20024;-74
2022/11/30 01:13:37;;;;;;;33.97;17.00;;;;;;;2.50;100.00;92404.31;5104481;28;20115;-74
2022/11/30 01:16:12;;;;;;;29.92;16.17;;;;;;;2.50;100.00;92396.56;5082617;28;20094;-74
2022/11/30 01:18:38;;;;;;;29.42;15.95;;;;;;;2.51;100.00;92400.69;5070944;28;20036;-74
2022/11/30 01:21:12;;;;;;;30.33;15.68;;;;;;;2.51;100.00;92395.53;5084055;28;20109;-74
2022/11/30 01:23:38;;;;;;;30.27;14.73;;;;;;;2.49;100.00;92393.19;5090016;28;20375;-74
2022/11/30 01:26:04;;;;;;;35.67;17.02;;;;;;;2.48;100.00;92390.84;5087954;28;20571;-74
2022/11/30 01:28:30;;;;;;;38.67;17.05;;;;;;;2.46;100.00;92396.25;5088902;28;20028;-74
2022/11/30 01:31:02;;;;;;;35.05;18.08;;;;;;;2.44;100.00;92390.53;5090952;28;20115;-74
2022/11/30 01:33:28;;;;;;;29.85;14.65;;;;;;;2.43;100.00;92388.19;5076491;28;20060;-74
2022/11/30 01:36:01;;;;;;;26.30;14.60;;;;;;;2.41;100.00;92385.06;5069442;28;20031;-74
2022/11/30 01:38:34;;;;;;;26.77;14.25;;;;;;;2.40;100.00;92383.50;5071553;28;20660;-74
2022/11/30 01:41:00;;;;;;;30.52;15.05;;;;;;;2.35;100.00;92386.78;5073187;28;20063;-74
2022/11/30 01:43:42;;;;;;;23.67;13.25;;;;;;;2.30;100.00;92386.75;5090637;28;20040;-74
2022/11/30 01:46:18;;;;;;;29.77;13.60;;;;;;;2.25;100.00;92390.03;5089770;28;20036;-74
2022/11/30 01:48:46;;;;;;;27.33;13.57;;;;;;;2.24;100.00;92391.03;5088827;28;20393;-74
2022/11/30 01:51:12;;;;;;;27.70;14.18;;;;;;;2.20;100.00;92384.00;5090798;28;20266;-74
2022/11/30 01:53:37;;;;;;;26.88;13.60;;;;;;;2.21;100.00;92383.78;5089100;28;20048;-74
2022/11/30 01:56:03;;;;;;;27.40;14.13;;;;;;;2.18;100.00;92386.81;5088554;28;20039;-74
2022/11/30 01:58:29;;;;;;;28.48;14.45;;;;;;;2.16;100.00;92386.28;5098746;28;20044;-74
2022/11/30 02:00:55;;;;;;;27.73;14.43;;;;;;;2.13;100.00;92381.59;5092963;28;20028;-74
2022/11/30 02:03:37;;;;;;;28.00;13.45;;;;;;;2.08;100.00;92381.50;5110145;28;20044;-74
2022/11/30 02:06:04;;;;;;;25.40;12.93;;;;;;;2.02;100.00;92382.44;5093176;28;20063;-74
2022/11/30 02:08:31;;;;;;;25.55;12.77;;;;;;;1.99;100.00;92385.50;5092469;28;20055;-74
2022/11/30 02:11:02;;;;;;;23.58;12.40;;;;;;;1.95;100.00;92380.03;5092059;28;20024;-74
2022/11/30 02:13:57;;;;;;;24.60;11.90;;;;;;;1.90;100.00;92377.38;5094093;28;20120;-74
2022/11/30 02:16:51;;;;;;;24.15;12.38;;;;;;;1.85;100.00;92380.66;5090984;28;20036;-74
2022/11/30 02:19:39;;;;;;;23.88;12.40;;;;;;;1.78;100.00;92371.50;5092453;28;20032;-73
2022/11/30 02:22:25;;;;;;;22.25;11.57;;;;;;;1.76;100.00;92379.50;5083042;28;20500;-74
2022/11/30 02:25:17;;;;;;;21.73;11.82;;;;;;;1.70;100.00;92380.41;5089337;28;20039;-74
2022/11/30 02:28:25;;;;;;;21.70;11.85;;;;;;;1.67;100.00;92380.91;5072281;28;20463;-74
2022/11/30 02:30:53;;;;;;;23.08;12.02;;;;;;;1.64;100.00;92378.75;5072290;28;20494;-74
2022/11/30 02:33:25;;;;;;;22.35;11.82;;;;;;;1.65;100.00;92377.75;5072286;28;20086;-74
2022/11/30 02:35:54;;;;;;;22.15;11.63;;;;;;;1.59;100.00;92376.13;5055472;28;20032;-74
2022/11/30 02:38:21;;;;;;;21.17;10.98;;;;;;;1.55;100.00;92378.38;5064244;28;20119;-74
2022/11/30 02:40:47;;;;;;;23.13;11.75;;;;;;;1.53;100.00;92379.63;5092191;28;20028;-74
2022/11/30 02:43:15;;;;;;;20.65;11.70;;;;;;;1.52;100.00;92378.84;5109320;28;20047;-74
2022/11/30 02:45:47;;;;;;;23.45;11.60;;;;;;;1.49;100.00;92383.66;5091960;28;20123;-74
2022/11/30 02:48:18;;;;;;;26.15;12.10;;;;;;;1.45;100.00;92381.56;5090496;28;20043;-74
2022/11/30 02:50:55;;;;;;;23.08;12.55;;;;;;;1.44;100.00;92385.19;5093361;28;20119;-74
2022/11/30 02:53:21;;;;;;;23.42;11.90;;;;;;;1.46;100.00;92382.34;5093197;28;20048;-74
2022/11/30 02:55:47;;;;;;;24.00;12.30;;;;;;;1.41;100.00;92383.03;5082154;28;20057;-75
2022/11/30 02:58:15;;;;;;;23.83;11.40;;;;;;;1.39;100.00;92385.06;5106160;28;20063;-74
2022/11/30 03:00:40;;;;;;;23.95;11.10;;;;;;;1.41;100.00;92395.94;5054980;28;20033;-74
2022/11/30 03:03:06;;;;;;;24.13;12.07;;;;;;;1.39;100.00;92390.22;5072967;28;20321;-76
2022/11/30 03:05:31;;;;;;;22.15;11.57;;;;;;;1.40;100.00;92396.19;5059248;28;20036;-74
2022/11/30 03:07:57;;;;;;;23.00;11.80;;;;;;;1.40;100.00;92396.97;5091404;28;20085;-74
2022/11/30 03:10:22;;;;;;;23.13;11.77;;;;;;;1.39;100.00;92395.38;5089529;28;20032;-74
2022/11/30 03:12:48;;;;;;;25.23;12.57;;;;;;;1.39;100.00;92392.81;5108517;28;20122;-74
2022/11/30 03:15:14;;;;;;;26.25;12.38;;;;;;;1.40;100.00;92391.81;5085443;28;20048;-74
2022/11/30 03:17:39;;;;;;;23.40;12.50;;;;;;;1.37;100.00;92389.66;5072980;28;20032;-74
2022/11/30 03:20:05;;;;;;;23.42;11.90;;;;;;;1.41;100.00;92398.53;5072444;28;20116;-74
2022/11/30 03:22:31;;;;;;;24.40;12.50;;;;;;;1.41;100.00;92398.53;5054655;28;20047;-74
2022/11/30 03:24:57;;;;;;;30.88;12.95;;;;;;;1.43;100.00;92403.44;5071282;28;20033;-74
2022/11/30 03:27:22;;;;;;;24.00;11.85;;;;;;;1.43;100.00;92406.81;5074668;28;20024;-74
2022/11/30 03:29:48;;;;;;;23.25;12.50;;;;;;;1.44;100.00;92405.81;5104743;28;20482;-74
2022/11/30 03:32:13;;;;;;;25.50;13.25;;;;;;;1.46;100.00;92410.72;5072257;28;20414;-73
2022/11/30 03:34:39;;;;;;;25.17;12.75;;;;;;;1.47;100.00;92411.53;5072205;28;20029;-74
2022/11/30 03:37:05;;;;;;;23.35;12.35;;;;;;;1.49;100.00;92409.47;5082818;28;20074;-74
2022/11/30 03:39:30;;;;;;;24.15;12.90;;;;;;;1.49;100.00;92406.88;5090731;28;20130;-73
2022/11/30 03:41:56;;;;;;;24.48;12.90;;;;;;;1.48;100.00;92405.34;5089831;28;20058;-74
2022/11/30 03:44:21;;;;;;;24.75;12.70;;;;;;;1.46;100.00;92413.31;5092572;28;20040;-74
2022/11/30 03:46:47;;;;;;;26.38;13.55;;;;;;;1.43;100.00;92406.81;5103189;28;20124;-75
2022/11/30 03:49:12;;;;;;;23.13;11.82;;;;;;;1.42;100.00;92410.41;5084793;28;20043;-74
2022/11/30 03:51:38;;;;;;;23.08;12.38;;;;;;;1.41;100.00;92403.69;5090724;28;20240;-74
2022/11/30 03:54:04;;;;;;;26.42;13.23;;;;;;;1.40;100.00;92412.44;5091921;28;20040;-74
2022/11/30 03:56:29;;;;;;;25.48;13.00;;;;;;;1.36;100.00;92406.19;5092022;28;20042;-74
2022/11/30 03:58:55;;;;;;;24.17;12.25;;;;;;;1.35;100.00;92402.03;5076563;28;20033;-74
2022/11/30 04:01:22;;;;;;;23.17;12.38;;;;;;;1.30;100.00;92396.78;5071714;28;20543;-74
2022/11/30 04:03:49;;;;;;;24.90;13.05;;;;;;;1.26;100.00;92405.97;5071524;28;20036;-74
2022/11/30 04:06:15;;;;;;;23.85;12.40;;;;;;;1.27;100.00;92407.56;5070530;28;20610;-74
2022/11/30 04:08:41;;;;;;;22.92;12.35;;;;;;;1.22;100.00;92403.09;5072180;28;20116;-74
2022/11/30 04:11:07;;;;;;;21.25;11.98;;;;;;;1.20;100.00;92397.38;5088638;28;20032;-74
2022/11/30 04:13:35;;;;;;;22.98;11.73;;;;;;;1.19;100.00;92395.84;5091865;28;20039;-74
2022/11/30 04:16:01;;;;;;;25.20;12.38;;;;;;;1.21;100.00;92395.59;5091885;28;20065;-74
2022/11/30 04:18:28;;;;;;;24.15;12.27;;;;;;;1.21;100.00;92391.19;5090850;28;20663;-74
2022/11/30 04:20:56;;;;;;;22.33;12.15;;;;;;;1.20;100.00;92386.28;5069285;28;20044;-74
2022/11/30 04:23:23;;;;;;;23.77;12.57;;;;;;;1.20;100.00;92391.47;5086273;28;20042;-74
2022/11/30 04:25:49;;;;;;;23.30;12.65;;;;;;;1.20;100.00;92389.66;5072614;28;20456;-74
2022/11/30 04:28:15;;;;;;;20.60;12.32;;;;;;;1.19;100.00;92389.88;5070093;28;20051;-74
2022/11/30 04:30:42;;;;;;;24.48;12.50;;;;;;;1.18;100.00;92396.06;5071516;28;20025;-74
2022/11/30 04:33:08;;;;;;;23.50;11.85;;;;;;;1.17;100.00;92390.13;5071636;28;20310;-74
2022/11/30 04:35:39;;;;;;;24.80;12.88;;;;;;;1.15;100.00;92389.56;5069970;28;20445;-74
2022/11/30 04:38:05;;;;;;;21.00;11.65;;;;;;;1.14;100.00;92398.31;5071347;28;20037;-74
2022/11/30 04:40:30;;;;;;;19.10;10.15;;;;;;;1.11;100.00;92391.03;5084774;28;20386;-74
2022/11/30 04:42:56;;;;;;;20.05;10.70;;;;;;;1.08;100.00;92385.53;5054802;28;20047;-74
2022/11/30 04:45:21;;;;;;;19.77;10.18;;;;;;;1.08;100.00;92388.13;5078945;28;20375;-74
2022/11/30 04:47:47;;;;;;;19.13;9.98;;;;;;;1.01;100.00;92385.69;5069563;28;20028;-74
2022/11/30 04:50:13;;;;;;;19.65;10.30;;;;;;;0.97;100.00;92385.38;5076666;28;20036;-74
2022/11/30 04:52:38;;;;;;;21.30;10.43;;;;;;;0.91;100.00;92383.69;5088662;28;20134;-74
2022/11/30 04:55:04;;;;;;;16.00;9.57;;;;;;;0.85;100.00;92384.63;5073437;28;20047;-74
2022/11/30 04:57:30;;;;;;;16.00;9.48;;;;;;;0.81;100.00;92379.16;5070940;28;20044;-74
2022/11/30 04:59:56;;;;;;;18.02;9.55;;;;;;;0.82;100.00;92390.22;5072221;28;20111;-75
2022/11/30 05:02:21;;;;;;;17.42;8.98;;;;;;;0.76;100.00;92386.75;5091096;28;20181;-74
2022/11/30 05:04:47;;;;;;;20.48;10.15;;;;;;;0.71;100.00;92393.63;5089010;28;20031;-74
2022/11/30 05:07:12;;;;;;;20.45;10.25;;;;;;;0.68;100.00;92394.88;5090964;28;20032;-74
2022/11/30 05:09:38;;;;;;;22.00;10.32;;;;;;;0.62;100.00;92391.38;5089724;28;20028;-75
2022/11/30 05:12:04;;;;;;;17.50;9.70;;;;;;;0.58;100.00;92395.41;5061257;28;20033;-74
2022/11/30 05:14:29;;;;;;;18.48;10.32;;;;;;;0.57;100.00;92395.66;5071392;28;20033;-74
2022/11/30 05:16:55;;;;;;;17.67;9.23;;;;;;;0.55;100.00;92393.31;5072576;28;20093;-74
2022/11/30 05:19:20;;;;;;;19.55;10.15;;;;;;;0.52;100.00;92396.34;5090829;28;20032;-75
2022/11/30 05:21:49;;;;;;;16.55;9.68;;;;;;;0.50;100.00;92395.78;5082786;28;20040;-75
2022/11/30 05:24:16;;;;;;;18.02;9.80;;;;;;;0.48;100.00;92392.66;5069480;28;20040;-75
2022/11/30 05:26:41;;;;;;;17.75;9.40;;;;;;;0.46;100.00;92394.66;5070922;28;20025;-75
2022/11/30 05:29:07;;;;;;;15.25;9.07;;;;;;;0.44;100.00;92394.13;5069393;28;20036;-74
2022/11/30 05:31:32;;;;;;;17.77;9.18;;;;;;;0.42;100.00;92393.56;5073330;28;20119;-74
2022/11/30 05:33:58;;;;;;;20.02;10.65;;;;;;;0.42;100.00;92393.56;5093480;28;20024;-75
2022/11/30 05:36:24;;;;;;;18.85;9.93;;;;;;;0.39;100.00;92396.59;5091274;28;20116;-75
2022/11/30 05:38:49;;;;;;;17.95;10.18;;;;;;;0.41;100.00;92389.44;5093393;28;20441;-74
2022/11/30 05:41:15;;;;;;;20.70;10.95;;;;;;;0.41;100.00;92399.72;5093550;28;20035;-74
2022/11/30 05:43:41;;;;;;;18.80;9.57;;;;;;;0.45;100.00;92403.41;5078275;28;20040;-75
2022/11/30 05:46:08;;;;;;;20.58;11.00;;;;;;;0.46;100.00;92402.41;5084521;28;20036;-75
2022/11/30 05:48:34;;;;;;;20.63;9.80;;;;;;;0.48;100.00;92395.22;5090815;28;20032;-75
2022/11/30 05:51:19;;;;;;;22.08;10.30;;;;;;;0.50;100.00;92393.22;5090588;28;20089;-77
2022/11/30 05:53:45;;;;;;;19.38;10.27;;;;;;;0.53;100.00;92391.97;5092143;28;20052;-76
2022/11/30 05:56:17;;;;;;;21.45;11.25;;;;;;;0.54;100.00;92398.69;5089140;28;20182;-77
2022/11/30 05:58:44;;;;;;;19.10;10.02;;;;;;;0.56;100.00;92397.47;5079350;28;20084;-76
2022/11/30 06:01:27;;;;;;;20.85;10.38;;;;;;;0.60;100.00;92398.56;5084306;28;20146;-76
2022/11/30 06:03:52;;;;;;;22.10;10.82;;;;;;;0.64;100.00;92392.97;5082387;28;20027;-76
2022/11/30 06:06:19;;;;;;;23.35;11.13;;;;;;;0.66;100.00;92393.53;5091888;28;20489;-76
2022/11/30 06:08:46;;;;;;;19.40;10.05;;;;;;;0.70;100.00;92392.03;5089582;28;20074;-74
2022/11/30 06:11:12;;;;;;;20.65;10.77;;;;;;;0.74;100.00;92388.00;5089956;28;20067;-75
2022/11/30 06:13:38;;;;;;;20.52;11.20;;;;;;;0.76;100.00;92391.13;5087821;28;20040;-75
2022/11/30 06:16:04;;;;;;;22.02;11.45;;;;;;;0.81;100.00;92388.66;5106373;28;20056;-76
2022/11/30 06:18:30;;;;;;;21.88;11.32;;;;;;;0.83;100.00;92392.59;5073811;28;20117;-75
2022/11/30 06:21:07;;;;;;;22.00;11.45;;;;;;;0.87;100.00;92385.16;5076288;28;20058;-75
2022/11/30 06:23:32;;;;;;;24.05;11.82;;;;;;;0.91;100.00;92394.00;5081608;28;20040;-75
2022/11/30 06:26:11;;;;;;;22.40;11.38;;;;;;;0.92;100.00;92387.84;5073758;28;20044;-75
2022/11/30 06:28:38;;;;;;;20.92;11.10;;;;;;;0.96;100.00;92381.22;5084940;28;20031;-76
2022/11/30 06:31:05;;;;;;;20.35;11.10;;;;;;;0.97;100.00;92380.22;5094229;28;20020;-75
2022/11/30 06:33:31;;;;;;;22.50;12.13;;;;;;;1.00;100.00;92387.47;5093695;28;20039;-76
2022/11/30 06:35:57;;;;;;;21.52;12.35;;;;;;;1.03;100.00;92387.00;5092643;28;20043;-75
2022/11/30 06:38:24;;;;;;;22.02;11.88;;;;;;;1.08;100.00;92393.28;5073653;28;20119;-75
2022/11/30 06:40:51;;;;;;;24.23;11.63;;;;;;;1.11;100.00;92387.69;5084920;28;20037;-75
2022/11/30 06:43:17;;;;;;;24.40;12.35;;;;;;;1.10;100.00;92386.88;5087233;28;20040;-76
2022/11/30 06:45:44;;;;;;;23.17;12.43;;;;;;;1.13;100.00;92394.16;5072515;28;20036;-76
2022/11/30 06:48:11;;;;;;;27.42;11.90;;;;;;;1.16;100.00;92390.34;5073071;28;20182;-76
2022/11/30 06:50:36;;;;;;;24.55;12.25;;;;;;;1.17;100.00;92386.75;5084754;28;20023;-75
2022/11/30 06:53:02;;;;;;;21.15;11.77;;;;;;;1.21;100.00;92387.84;5073068;28;20049;-76
2022/11/30 06:55:31;;;;;;;22.27;12.02;;;;;;;1.22;100.00;92395.38;5073235;28;20109;-76
2022/11/30 06:58:07;;;;;;;20.95;11.48;;;;;;;1.22;100.00;92392.78;5079685;28;20041;-76
2022/11/30 07:00:34;;;;;;;24.15;12.50;;;;;;;1.26;100.00;92403.41;5078247;28;20032;-76
2022/11/30 07:03:01;;;;;;;22.00;11.60;;;;;;;1.28;100.00;92398.03;5065051;28;20056;-76
2022/11/30 07:05:27;;;;;;;25.88;12.25;;;;;;;1.30;100.00;92391.63;5074105;28;20029;-76
2022/11/30 07:07:52;;;;;;;24.13;12.70;;;;;;;1.34;100.00;92402.25;5085130;28;20039;-76
2022/11/30 07:10:18;;;;;;;24.60;12.57;;;;;;;1.35;100.00;92399.47;5079493;28;20024;-75
2022/11/30 07:12:45;;;;;;;24.98;13.35;;;;;;;1.36;100.00;92401.03;5090889;28;20551;-77
2022/11/30 07:15:10;;;;;;;25.83;13.65;;;;;;;1.39;100.00;92400.53;5075936;28;20067;-76
2022/11/30 07:17:36;;;;;;;25.67;12.88;;;;;;;1.43;100.00;92401.66;5088980;28;20048;-76
2022/11/30 07:20:02;;;;;;;25.65;13.85;;;;;;;1.47;100.00;92401.97;5091161;28;20032;-75
2022/11/30 07:22:28;;;;;;;26.58;12.90;;;;;;;1.48;100.00;92397.59;5077678;28;20044;-75
2022/11/30 07:27:37;;;;;;;29.38;13.77;;;;;;;1.54;100.00;92401.84;5079790;28;20505;-76
2022/11/30 07:30:03;;;;;;;27.98;14.32;;;;;;;1.53;100.00;92400.25;5058023;28;20036;-76
2022/11/30 07:32:29;;;;;;;29.00;14.77;;;;;;;1.53;100.00;92405.41;5091463;28;20028;-76
2022/11/30 07:34:54;;;;;;;30.77;15.35;;;;;;;1.57;100.00;92404.72;5078114;28;20047;-76
2022/11/30 07:37:20;;;;;;;29.67;16.35;;;;;;;1.59;100.00;92414.81;5072474;28;20398;-76
2022/11/30 07:39:45;;;;;;;30.63;15.80;;;;;;;1.62;100.00;92415.16;5071116;28;20032;-76
2022/11/30 07:42:11;;;;;;;33.38;14.32;;;;;;;1.90;100.00;92420.50;5038908;28;20039;-75
2022/11/30 07:44:36;;;;;;;36.28;18.55;;;;;;;1.90;100.00;92415.31;5081535;28;20119;-76
2022/11/30 07:47:02;;;;;;;34.10;18.10;;;;;;;1.87;100.00;92424.31;5091429;28;20482;-76
2022/11/30 07:49:27;;;;;;;39.35;19.33;;;;;;;1.87;100.00;92419.94;5086120;28;20028;-76
2022/11/30 07:51:53;;;;;;;42.22;19.77;;;;;;;1.87;100.00;92419.16;5059551;28;20048;-77
2022/11/30 07:54:18;;;;;;;41.53;19.67;;;;;;;1.88;100.00;92415.56;5080710;28;20085;-76
2022/11/30 07:56:44;;;;;;;44.30;20.73;;;;;;;1.86;100.00;92420.16;5069976;28;20040;-76
2022/11/30 07:59:10;;;;;;;37.03;19.05;;;;;;;1.92;100.00;92418.47;5073096;28;20040;-76
2022/11/30 08:01:36;;;;;;;37.38;18.55;;;;;;;1.93;100.00;92417.44;5072236;28;20466;-76
2022/11/30 08:04:01;;;;;;;35.75;17.48;;;;;;;1.95;100.00;92418.75;5071742;28;20036;-76
2022/11/30 08:06:29;;;;;;;34.42;17.13;;;;;;;1.99;100.00;92419.06;5071679;28;20482;-76
2022/11/30 08:09:03;;;;;;;28.98;14.57;;;;;;;2.04;100.00;92425.09;5071797;28;20554;-76
2022/11/30 08:11:31;;;;;;;27.35;14.20;;;;;;;2.08;100.00;92428.00;5071781;28;20033;-76
2022/11/30 08:13:57;;;;;;;33.10;14.75;;;;;;;2.12;100.00;92442.00;5073029;28;20028;-77
2022/11/30 08:16:26;;;;;;;36.00;17.55;;;;;;;2.21;100.00;92437.25;5071670;28;20132;-76
2022/11/30 08:18:53;;;;;;;31.67;17.05;;;;;;;2.25;100.00;92438.31;5072041;28;20032;-76
2022/11/30 08:21:20;;;;;;;34.60;17.60;;;;;;;2.25;100.00;92439.09;5070490;28;20076;-76
2022/11/30 08:23:49;;;;;;;31.98;16.83;;;;;;;2.31;100.00;92439.19;5070582;28;20139;-76
2022/11/30 08:26:17;;;;;;;31.10;16.08;;;;;;;2.32;100.00;92444.13;5083348;28;20036;-77
2022/11/30 08:28:45;;;;;;;30.90;17.40;;;;;;;2.37;100.00;92443.41;5071589;28;20036;-77
2022/11/30 08:31:25;;;;;;;27.75;14.35;;;;;;;2.43;100.00;92442.44;5070507;28;20032;-76
2022/11/30 08:34:11;;;;;;;23.10;12.88;;;;;;;2.45;100.00;92448.94;5070411;28;20036;-76
2022/11/30 08:36:38;;;;;;;24.50;12.02;;;;;;;2.47;100.00;92452.06;5071604;28;20131;-77
2022/11/30 08:39:05;;;;;;;22.92;12.02;;;;;;;2.53;100.00;92450.34;5073493;28;20024;-76
2022/11/30 08:41:33;;;;;;;21.15;12.18;;;;;;;2.58;100.00;92452.22;5086985;28;20366;-77
2022/11/30 08:44:00;;;;;;;24.10;12.63;;;;;;;2.63;100.00;92450.47;5088463;28;20632;-78
2022/11/30 08:46:25;;;;;;;20.58;11.45;;;;;;;2.67;100.00;92453.38;5088374;28;20174;-77
2022/11/30 08:48:51;;;;;;;22.98;11.95;;;;;;;2.73;100.00;92459.41;5072975;28;20093;-77
2022/11/30 08:51:18;;;;;;;20.33;11.60;;;;;;;2.76;100.00;92453.75;5078863;28;20040;-77
2022/11/30 08:53:45;;;;;;;22.05;11.18;;;;;;;2.74;100.00;92459.16;5053970;28;20392;-77
2022/11/30 08:56:13;;;;;;;25.05;11.80;;;;;;;2.80;100.00;92458.22;5105580;28;20040;-77
2022/11/30 08:58:39;;;;;;;30.83;15.23;;;;;;;2.80;100.00;92454.84;5078580;28;20029;-77
2022/11/30 09:01:15;;;;;;;45.45;23.08;;;;;;;2.80;100.00;92463.38;5077178;28;20040;-77
2022/11/30 09:03:43;;;;;;;164.40;23.10;;;;;;;2.72;100.00;92466.38;5085059;28;20161;-77
2022/11/30 09:06:12;;;;;;;134.20;25.10;;;;;;;2.64;100.00;92472.72;5083523;28;20383;-77
2022/11/30 09:08:39;;;;;;;221.52;23.13;;;;;;;2.57;100.00;92471.31;5081258;28;20082;-77
2022/11/30 09:11:13;;;;;;;145.95;22.67;;;;;;;2.45;100.00;92476.56;5080021;28;20051;-76
2022/11/30 09:13:40;;;;;;;447.42;30.85;;;;;;;2.29;100.00;92476.34;5081573;28;20032;-77
2022/11/30 09:16:06;;;;;;;278.15;24.50;;;;;;;2.15;100.00;92480.28;5080446;28;20103;-77
2022/11/30 09:18:32;;;;;;;227.35;29.92;;;;;;;2.20;100.00;92482.91;5079951;28;20181;-77
2022/11/30 09:20:59;;;;;;;51.65;12.93;;;;;;;2.32;100.00;92488.03;5089078;28;20032;-76
2022/11/30 09:23:25;;;;;;;303.50;31.70;;;;;;;2.20;100.00;92484.72;5079103;28;20031;-76
2022/11/30 09:25:58;;;;;;;15.50;6.82;;;;;;;2.19;100.00;92489.13;5088950;28;20068;-77
2022/11/30 09:28:25;;;;;;;183.00;20.38;;;;;;;2.20;100.00;92487.31;5082219;28;20453;-76
2022/11/30 09:30:51;;;;;;;260.70;30.35;;;;;;;2.15;100.00;92490.59;5083018;28;20047;-76
2022/11/30 09:33:17;;;;;;;49.13;25.05;;;;;;;2.21;100.00;92489.66;5087700;28;20047;-76
2022/11/30 09:35:43;;;;;;;43.08;20.75;;;;;;;2.10;100.00;92493.09;5087150;28;20132;-76
2022/11/30 09:38:08;;;;;;;65.75;26.60;;;;;;;2.05;100.00;92498.19;5075857;28;20131;-76
2022/11/30 09:40:37;;;;;;;53.65;27.17;;;;;;;2.00;100.00;92498.09;5090360;28;20592;-77
2022/11/30 09:43:02;;;;;;;58.47;28.20;;;;;;;1.95;100.00;92495.44;5085156;28;20036;-76
2022/11/30 09:45:33;;;;;;;102.03;18.92;;;;;;;2.18;100.00;92508.19;5082360;28;20023;-77
2022/11/30 09:48:22;;;;;;;102.35;21.80;;;;;;;2.22;100.00;92504.13;5090623;28;20024;-76
2022/11/30 09:50:49;;;;;;;171.30;26.60;;;;;;;2.03;100.00;92502.81;5070469;28;20440;-76
2022/11/30 09:53:23;;;;;;;110.18;27.77;;;;;;;2.06;100.00;92507.50;5071334;28;20048;-77
2022/11/30 09:55:52;;;;;;;141.60;26.98;;;;;;;2.03;100.00;92500.22;5077206;28;20490;-77
2022/11/30 09:58:43;;;;;;;62.65;29.15;;;;;;;2.00;100.00;92498.09;5079576;28;20072;-77
2022/11/30 10:01:20;;;;;;;105.97;27.95;;;;;;;1.98;100.00;92506.09;5070045;28;20028;-77
2022/11/30 10:03:45;;;;;;;63.38;28.75;;;;;;;1.97;100.00;92495.97;5080223;28;20075;-77
2022/11/30 10:06:24;;;;;;;48.78;23.95;;;;;;;2.12;100.00;92501.41;5072860;28;20482;-77
2022/11/30 10:09:21;;;;;;;54.50;26.00;;;;;;;2.13;100.00;92502.97;5072294;28;20033;-76
2022/11/30 10:11:55;;;;;;;39.53;19.67;;;;;;;2.18;100.00;92500.44;5086230;28;20038;-77
2022/11/30 10:14:41;;;;;;;49.83;24.92;;;;;;;2.10;100.00;92498.28;5086964;28;20382;-76
2022/11/30 10:17:24;;;;;;;56.08;26.48;;;;;;;2.12;100.00;92495.44;5097675;28;20040;-77
2022/11/30 10:20:21;;;;;;;36.80;19.33;;;;;;;2.15;100.00;92492.41;5092078;28;20119;-76
2022/11/30 10:22:52;;;;;;;50.97;24.88;;;;;;;2.16;100.00;92499.13;5093307;28;20129;-75
2022/11/30 10:25:22;;;;;;;53.25;26.02;;;;;;;2.06;100.00;92497.16;5091530;28;20051;-76
2022/11/30 10:27:54;;;;;;;56.40;26.52;;;;;;;2.11;100.00;92492.06;5082060;28;20032;-77
2022/11/30 10:30:25;;;;;;;49.03;23.88;;;;;;;2.09;100.00;92496.69;5077011;28;20077;-76
2022/11/30 10:32:57;;;;;;;52.25;26.63;;;;;;;2.13;100.00;92492.63;5079289;28;20040;-76
2022/11/30 10:36:11;;;;;;;54.47;26.45;;;;;;;2.05;100.00;92490.44;5094342;28;20028;-76
2022/11/30 10:38:42;;;;;;;50.13;24.02;;;;;;;2.10;100.00;92487.16;5034199;28;20075;-76
2022/11/30 10:41:27;;;;;;;52.40;24.93;;;;;;;2.16;100.00;92487.00;5050253;28;20040;-76
2022/11/30 10:44:10;;;;;;;49.80;24.17;;;;;;;2.21;100.00;92479.34;5080860;28;20071;-76
2022/11/30 10:46:37;;;;;;;;;;;;;;;2.41;100.00;92483.22;5109583;28;20107;-76
2022/11/30 10:49:11;;;;;;;44.55;22.75;;;;;;;2.61;100.00;92488.72;5075395;28;19912;-77
2022/11/30 10:51:42;;;;;;;39.95;18.48;;;;;;;2.60;100.00;92492.31;5089158;28;20557;-77
2022/11/30 10:54:14;;;;;;;44.78;22.50;;;;;;;2.67;100.00;92490.34;5086530;28;20040;-77
2022/11/30 10:56:40;;;;;;;47.55;22.30;;;;;;;2.65;100.00;92499.34;5076901;28;20028;-76
2022/11/30 10:59:25;;;;;;;49.45;22.27;;;;;;;2.49;100.00;92500.94;5090140;28;20036;-77
2022/11/30 11:01:53;;;;;;;47.72;22.58;;;;;;;2.40;100.00;92499.75;5074786;28;20127;-76
2022/11/30 11:04:22;;;;;;;52.00;24.48;;;;;;;2.29;100.00;92494.44;5088333;28;20397;-77
2022/11/30 11:06:56;;;;;;;52.42;24.75;;;;;;;2.25;100.00;92489.97;5084928;28;20058;-76
2022/11/30 11:09:26;;;;;;;56.25;26.73;;;;;;;2.19;100.00;92483.19;5091399;28;20032;-77
2022/11/30 11:11:53;;;;;;;54.40;24.58;;;;;;;2.22;100.00;92480.88;5089468;28;20032;-77
2022/11/30 11:14:21;;;;;;;46.90;24.10;;;;;;;2.35;100.00;92489.34;5092263;28;20039;-77
2022/11/30 11:17:01;;;;;;;49.85;24.70;;;;;;;2.32;100.00;92480.28;5089327;28;20036;-77
2022/11/30 11:19:41;;;;;;;52.50;24.40;;;;;;;2.45;100.00;92479.16;5085904;28;20036;-77
2022/11/30 11:22:17;;;;;;;47.90;23.35;;;;;;;2.34;100.00;92485.19;5073533;28;20044;-77
2022/11/30 11:24:44;;;;;;;47.38;23.40;;;;;;;2.36;100.00;92478.00;5088735;28;20036;-78
2022/11/30 11:27:30;;;;;;;42.58;18.42;;;;;;;2.56;100.00;92477.50;5089584;28;20486;-76